Flight Track Log - Related Links

Times and Time Zones

All times are in EDT time to prevent confusion due to time zone crossing. See the XOJ549 flight status page for this flight to view local times or setup timezone preferences in your user account.

Time Position Orientation Groundspeed Altitude Reporting Facility
EDT Latitude Longitude Course Direction KTS MPH feet Rate Location/Type
Wed 05:11:40 PM 21.9083 -72.3233 322° Northwest 370 426 10,900  Level Miami Center
Wed 05:12:40 PM 21.9769 -72.3769 324° Northwest 336 387 14,400 3,500 Climbing Miami Center
Wed 05:13:40 PM 22.0475 -72.4372 322° Northwest 323 372 17,900 3,200 Climbing Miami Center
Wed 05:14:40 PM 22.1286 -72.4972 326° Northwest 329 379 20,800 2,800 Climbing Miami Center
Wed 05:15:40 PM 22.2097 -72.5639 323° Northwest 351 404 23,500 2,700 Climbing Miami Center
Wed 05:16:00 PM 22.3601 -72.5023 338° Northwest  Level FlightAware Approximate
Wed 05:16:40 PM 22.2950 -72.6286 325° Northwest 364 419 26,200  Level Miami Center
Wed 05:17:40 PM 22.3806 -72.7044 321° Northwest 381 438 27,000 550 Climbing Miami Center
Wed 05:18:40 PM 22.4725 -72.7778 324° Northwest 402 463 27,300 600 Climbing Miami Center
Wed 05:19:40 PM 22.5706 -72.8533 325° Northwest 414 476 28,200 1,300 Climbing Miami Center
Wed 05:20:40 PM 22.6689 -72.9381 322° Northwest 437 503 29,900 1,850 Climbing Miami Center
Wed 05:21:40 PM 22.7711 -73.0161 325° Northwest 448 516 31,900 1,950 Climbing Miami Center
Wed 05:22:40 PM 22.8628 -73.0967 321° Northwest 442 509 33,800 1,050 Climbing Miami Center
Wed 05:23:40 PM 22.9525 -73.1708 323° Northwest 420 483 34,000 250 Climbing Miami Center
Wed 05:24:40 PM 23.0503 -73.2492 324° Northwest 427 491 34,300 1,150 Climbing Miami Center
Wed 05:25:40 PM 23.1461 -73.3256 324° Northwest 427 491 36,300 1,950 Climbing Miami Center
Wed 05:26:40 PM 23.2419 -73.4044 323° Northwest 427 491 38,200 1,900 Climbing Miami Center
Wed 05:27:40 PM 23.3336 -73.4811 322° Northwest 432 497 40,100 1,850 Climbing Miami Center
Wed 05:28:40 PM 23.4208 -73.5511 324° Northwest 422 486 41,900 1,450 Climbing Miami Center
Wed 05:29:40 PM 23.5081 -73.6214 324° Northwest 399 459 43,000 550 Climbing Miami Center
Wed 05:30:40 PM 23.5931 -73.6939 322° Northwest 399 459 43,000  Level Miami Center
Wed 05:31:40 PM 23.6886 -73.7733 323° Northwest 408 470 43,000  Level Miami Center
Wed 05:32:40 PM 23.7844 -73.8503 324° Northwest 421 484 43,000  Level Miami Center
Wed 05:33:40 PM 23.8778 -73.9275 323° Northwest 421 484 43,000  Level Miami Center
Wed 05:34:40 PM 23.9756 -74.0094 323° Northwest 429 494 43,000  Level Miami Center
Wed 05:35:40 PM 24.0711 -74.0892 323° Northwest 436 502 43,000  Level Miami Center
Wed 05:36:40 PM 24.1644 -74.1647 324° Northwest 430 495 43,000  Level Miami Center
Wed 05:37:40 PM 24.2578 -74.2447 322° Northwest 425 489 43,000  Level Miami Center
Wed 05:38:40 PM 24.3489 -74.3203 323° Northwest 425 489 43,000  Level Miami Center
Wed 05:39:40 PM 24.4442 -74.4006 323° Northwest 425 489 43,000  Level Miami Center
Wed 05:40:40 PM 24.5375 -74.4786 323° Northwest 425 489 43,000  Level Miami Center
Wed 05:41:40 PM 24.6328 -74.5589 323° Northwest 425 489 43,000  Level Miami Center
Wed 05:42:40 PM 24.7239 -74.6350 323° Northwest 425 489 43,000  Level Miami Center
Wed 05:43:40 PM 24.8211 -74.7203 321° Northwest 430 495 43,000  Level Miami Center
Wed 05:44:40 PM 24.9142 -74.8011 322° Northwest 424 488 43,000  Level Miami Center
Wed 05:45:40 PM 25.0053 -74.8775 323° Northwest 424 488 43,000  Level Miami Center
Wed 05:46:40 PM 25.1003 -74.9564 323° Northwest 424 488 43,000  Level Miami Center
Wed 05:47:40 PM 25.1933 -75.0375 322° Northwest 424 488 43,000  Level Miami Center
Wed 05:48:40 PM 25.2883 -75.1167 323° Northwest 424 488 43,000  Level Miami Center
Wed 05:49:40 PM 25.3811 -75.1958 322° Northwest 430 495 43,000  Level Miami Center
Wed 05:50:40 PM 25.4781 -75.2842 321° Northwest 430 495 43,000  Level Miami Center
Wed 05:51:40 PM 25.5711 -75.3658 322° Northwest 425 489 43,000  Level Miami Center
Wed 05:52:40 PM 25.6553 -75.4317 325° Northwest 425 489 43,000  Level Miami Center
Wed 05:53:40 PM 25.7522 -75.5158 322° Northwest 432 497 43,000  Level Miami Center
Wed 05:54:40 PM 25.8469 -75.5981 322° Northwest 432 497 43,000  Level Miami Center
Wed 05:55:40 PM 25.9436 -75.6825 322° Northwest 434 499 43,000  Level Miami Center
Wed 05:56:40 PM 26.0364 -75.7647 321° Northwest 429 494 43,000 50 Level Miami Center
Wed 05:57:40 PM 26.1308 -75.8472 322° Northwest 429 494 43,100 350 Climbing Miami Center
Wed 05:58:40 PM 26.2233 -75.9297 321° Northwest 417 480 43,700 600 Climbing Miami Center
Wed 05:59:40 PM 26.3181 -76.0103 323° Northwest 431 496 44,300 600 Climbing Miami Center
Wed 06:00:40 PM 26.4167 -76.0978 322° Northwest 431 496 44,900 350 Climbing Miami Center
Wed 06:01:40 PM 26.5111 -76.1806 322° Northwest 432 497 45,000 50 Climbing Miami Center
Wed 06:02:40 PM 26.6033 -76.2639 321° Northwest 444 511 45,000  Level Miami Center
Wed 06:03:40 PM 26.6956 -76.3447 322° Northwest 433 498 45,000  Level Miami Center
Wed 06:04:40 PM 26.7878 -76.4233 323° Northwest 428 493 45,000  Level Miami Center
Wed 06:05:40 PM 26.8842 -76.5117 321° Northwest 423 487 45,000  Level Miami Center
Wed 06:06:40 PM 26.9742 -76.5906 322° Northwest 430 495 45,000  Level Miami Center
Wed 06:07:40 PM 27.0683 -76.6742 322° Northwest 423 487 45,000  Level Miami Center
Wed 06:08:40 PM 27.1603 -76.7558 322° Northwest 428 493 45,000  Level Miami Center
Wed 06:09:40 PM 27.2522 -76.8353 322° Northwest 425 489 45,000  Level Miami Center
Wed 06:10:40 PM 27.3483 -76.9289 319° Northwest 425 489 45,000  Level Miami Center
Wed 06:11:40 PM 27.4444 -77.0083 324° Northwest 432 497 45,000  Level Miami Center
Wed 06:12:40 PM 27.5633 -77.0414 346° North 415 478 45,000  Level Miami Center
Wed 06:13:40 PM 27.6906 -77.0650 351° North 437 503 45,000  Level Miami Center
Wed 06:14:40 PM 27.8181 -77.0794 354° North 442 509 45,000  Level Miami Center
Wed 06:15:40 PM 27.9433 -77.0914 355° North 448 516 45,000  Level Miami Center
Wed 06:16:40 PM 28.0664 -77.0917 360° North 448 516 45,000  Level Miami Center
Wed 06:17:40 PM 28.2083 -77.1178 351° North 448 516 45,000  Level Miami Center
Wed 06:18:40 PM 28.3378 -77.1347 353° North 448 516 45,000  Level Miami Center
Wed 06:19:40 PM 28.4569 -77.1467 355° North 443 510 45,000  Level Miami Center
Wed 06:20:40 PM 28.5800 -77.1636 353° North 443 510 45,000  Level Miami Center
Wed 06:21:40 PM 28.7053 -77.1756 355° North 455 524 45,000  Level Miami Center
Wed 06:22:40 PM 28.8303 -77.1925 353° North 439 505 45,000  Level Miami Center
Wed 06:23:40 PM 28.9408 -77.2047 354° North 454 522 45,000  Level Miami Center
Wed 06:24:40 PM 29.0744 -77.2194 354° North 452 520 45,000  Level Miami Center
Wed 06:25:40 PM 29.2017 -77.2389 352° North 459 528 45,000  Level Miami Center
Wed 06:26:40 PM 29.3289 -77.2511 355° North 464 534 45,000  Level Miami Center
Wed 06:27:40 PM 29.4519 -77.2683 353° North 457 526 45,000  Level Miami Center
Wed 06:28:40 PM 29.5792 -77.2831 354° North 457 526 45,000  Level Miami Center
Wed 06:29:16 PM 29.6486 -77.2847 359° North 439 505 45,000  Level Jacksonville Center
Wed 06:30:16 PM 29.7872 -77.3078 352° North 479 551 45,000  Level Jacksonville Center
Wed 06:31:16 PM 29.9067 -77.3178 356° North 441 507 45,000  Level Jacksonville Center
Wed 06:32:16 PM 30.0303 -77.3297 355° North 453 521 45,000  Level Jacksonville Center
Wed 06:33:16 PM 30.1583 -77.3486 353° North 462 532 45,000  Level Jacksonville Center
Wed 06:34:16 PM 30.2972 -77.3744 351° North 462 532 45,000  Level Jacksonville Center
Wed 06:35:16 PM 30.4233 -77.3911 353° North 458 527 45,000  Level Jacksonville Center
Wed 06:36:16 PM 30.5489 -77.4033 355° North 458 527 45,000  Level Jacksonville Center
Wed 06:37:16 PM 30.6744 -77.4106 357° North 458 527 45,000  Level Jacksonville Center
Wed 06:38:16 PM 30.8003 -77.4225 355° North 453 521 45,000  Level Jacksonville Center
Wed 06:39:16 PM 30.9261 -77.4369 354° North 446 513 45,000  Level Jacksonville Center
Wed 06:40:16 PM 31.0519 -77.4492 355° North 437 503 45,000  Level Jacksonville Center
Wed 06:41:16 PM 31.1739 -77.4689 352° North 447 514 45,000  Level Jacksonville Center
Wed 06:42:16 PM 31.2972 -77.4786 356° North 453 521 45,000  Level Jacksonville Center
Wed 06:43:16 PM 31.4192 -77.4983 352° North 442 509 45,000 -50 Level Jacksonville Center
Wed 06:44:16 PM 31.5431 -77.5131 354° North 448 516 44,900  Descending Jacksonville Center
Wed 06:45:16 PM 31.6644 -77.5231 356° North 437 503 45,000 -300 Climbing Jacksonville Center
Wed 06:46:16 PM 31.7883 -77.5403 353° North 434 499 44,300 -950 Descending Jacksonville Center
Wed 06:47:16 PM 31.9058 -77.5531 355° North 439 505 43,100 -1,400 Descending Jacksonville Center
Wed 06:48:16 PM 32.0172 -77.5711 352° North 421 484 41,500 -1,800 Descending Jacksonville Center
Wed 06:49:16 PM 32.1325 -77.5867 353° North 408 470 39,500 -2,000 Descending Jacksonville Center
Wed 06:50:16 PM 32.2544 -77.6042 353° North 418 481 37,500 -2,000 Descending Jacksonville Center
Wed 06:51:16 PM 32.3739 -77.6192 354° North 425 489 35,500 -2,000 Descending Jacksonville Center
Wed 06:52:16 PM 32.4914 -77.6347 354° North 430 495 33,500 -2,000 Descending Jacksonville Center
Wed 06:53:16 PM 32.6111 -77.6497 354° North 425 489 31,500 -2,000 Descending Jacksonville Center
Wed 06:54:16 PM 32.7369 -77.6622 355° North 435 501 29,500 -2,000 Descending Jacksonville Center
Wed 06:55:16 PM 32.8586 -77.6800 353° North 441 507 27,500 -2,000 Descending Jacksonville Center
Wed 06:56:16 PM 32.9825 -77.6975 353° North 441 507 25,500 -2,000 Descending Jacksonville Center
Wed 06:57:16 PM 33.0978 -77.7106 355° North 434 499 23,500 -2,000 Descending Jacksonville Center
Wed 06:58:16 PM 33.2133 -77.7289 352° North 422 486 21,500 -2,000 Descending Jacksonville Center
Wed 06:59:16 PM 33.3244 -77.7422 354° North 411 473 19,500 -1,950 Descending Jacksonville Center
Wed 07:00:16 PM 33.4356 -77.7581 353° North 406 467 17,600 -2,128 Descending Jacksonville Center
Wed 07:02:39 PM 33.6739 -77.7878 354° North 360 414 12,300 -1,971 Descending Washington Center
Wed 07:03:40 PM 33.7697 -77.8003 354° North 353 406 10,900 -942 Descending Washington Center
Wed 07:04:40 PM 33.8572 -77.8100 355° North 334 384 10,400 -1,169 Descending Washington Center
Wed 07:05:38 PM 33.9253 -77.8469 336° Northwest 280 322 8,600 -1,729 Descending Washington Center
Wed 07:06:38 PM 33.9658 -77.9031 311° West 275 316 7,000 -1,884 Descending Washington Center
Wed 07:07:39 PM 34.0144 -77.9869 305° West 275 316 4,800 -1,537 Descending Washington Center
Wed 07:08:39 PM 34.0419 -78.0606 294° West 265 305 3,900 -744 Descending Washington Center
Wed 07:09:40 PM 34.0553 -78.1236 284° West 227 261 3,300 -496 Descending Washington Center
Wed 07:10:40 PM 34.1033 -78.1250 359° North 182 209 2,900 -203 Descending Washington Center
Wed 07:11:38 PM 34.1333 -78.0858 47° Northeast 123 142 2,900  Level Washington Center

Login

Don't have an account? Register now (free) for customized features, flight alerts, and more!